sensor_id;sensor_type;location;lat;lon;timestamp;temperature;humidity
6252;DHT22;3159;52.414;9.784;2022-12-29T00:00:14;9.20;99.90
6252;DHT22;3159;52.414;9.784;2022-12-29T00:02:41;9.30;99.90
6252;DHT22;3159;52.414;9.784;2022-12-29T00:05:09;9.30;99.90
6252;DHT22;3159;52.414;9.784;2022-12-29T00:07:36;9.30;99.90
6252;DHT22;3159;52.414;9.784;2022-12-29T00:10:03;9.30;99.90
6252;DHT22;3159;52.414;9.784;2022-12-29T00:12:30;9.40;99.90
6252;DHT22;3159;52.414;9.784;2022-12-29T00:15:18;9.50;99.90
6252;DHT22;3159;52.414;9.784;2022-12-29T00:18:03;9.50;99.90
6252;DHT22;3159;52.414;9.784;2022-12-29T00:20:33;9.50;99.90
6252;DHT22;3159;52.414;9.784;2022-12-29T00:23:17;9.40;99.90
6252;DHT22;3159;52.414;9.784;2022-12-29T00:26:03;9.50;99.90
6252;DHT22;3159;52.414;9.784;2022-12-29T00:28:53;9.50;99.90
6252;DHT22;3159;52.414;9.784;2022-12-29T00:31:37;9.50;99.90
6252;DHT22;3159;52.414;9.784;2022-12-29T00:34:21;9.60;99.90
6252;DHT22;3159;52.414;9.784;2022-12-29T00:37:07;9.60;99.90
6252;DHT22;3159;52.414;9.784;2022-12-29T00:39:33;9.70;99.90
6252;DHT22;3159;52.414;9.784;2022-12-29T00:42:18;9.70;99.90
6252;DHT22;3159;52.414;9.784;2022-12-29T00:44:58;9.70;99.90
6252;DHT22;3159;52.414;9.784;2022-12-29T00:47:25;9.70;99.90
6252;DHT22;3159;52.414;9.784;2022-12-29T00:49:52;9.70;99.90
6252;DHT22;3159;52.414;9.784;2022-12-29T00:52:19;9.70;99.90
6252;DHT22;3159;52.414;9.784;2022-12-29T00:54:46;9.70;99.90
6252;DHT22;3159;52.414;9.784;2022-12-29T00:57:13;9.70;99.90
6252;DHT22;3159;52.414;9.784;2022-12-29T00:59:41;9.70;99.90
6252;DHT22;3159;52.414;9.784;2022-12-29T01:02:08;9.70;99.90
6252;DHT22;3159;52.414;9.784;2022-12-29T01:04:36;9.80;99.90
6252;DHT22;3159;52.414;9.784;2022-12-29T01:07:02;9.80;99.90
6252;DHT22;3159;52.414;9.784;2022-12-29T01:09:31;9.80;99.90
6252;DHT22;3159;52.414;9.784;2022-12-29T01:12:15;9.80;99.90
6252;DHT22;3159;52.414;9.784;2022-12-29T01:14:42;9.80;99.90
6252;DHT22;3159;52.414;9.784;2022-12-29T01:17:09;9.80;99.90
6252;DHT22;3159;52.414;9.784;2022-12-29T01:19:35;9.80;99.90
6252;DHT22;3159;52.414;9.784;2022-12-29T01:22:02;9.90;99.90
6252;DHT22;3159;52.414;9.784;2022-12-29T01:24:30;9.90;99.90
6252;DHT22;3159;52.414;9.784;2022-12-29T01:26:57;9.90;99.90
6252;DHT22;3159;52.414;9.784;2022-12-29T01:29:24;9.90;99.90
6252;DHT22;3159;52.414;9.784;2022-12-29T01:31:51;9.90;99.90
6252;DHT22;3159;52.414;9.784;2022-12-29T01:34:18;9.90;99.90
6252;DHT22;3159;52.414;9.784;2022-12-29T01:36:44;9.90;99.90
6252;DHT22;3159;52.414;9.784;2022-12-29T01:39:11;9.90;99.90
6252;DHT22;3159;52.414;9.784;2022-12-29T01:41:40;9.90;99.90
6252;DHT22;3159;52.414;9.784;2022-12-29T01:44:53;9.90;99.90
6252;DHT22;3159;52.414;9.784;2022-12-29T01:47:29;9.90;99.90
6252;DHT22;3159;52.414;9.784;2022-12-29T01:50:00;9.90;99.90
6252;DHT22;3159;52.414;9.784;2022-12-29T01:52:31;9.90;99.90
6252;DHT22;3159;52.414;9.784;2022-12-29T01:54:59;9.90;99.90
6252;DHT22;3159;52.414;9.784;2022-12-29T01:57:31;9.90;99.90
6252;DHT22;3159;52.414;9.784;2022-12-29T02:00:02;9.90;99.90
6252;DHT22;3159;52.414;9.784;2022-12-29T02:02:30;10.00;99.90
6252;DHT22;3159;52.414;9.784;2022-12-29T02:04:58;9.90;99.90
6252;DHT22;3159;52.414;9.784;2022-12-29T02:07:26;9.90;99.90
6252;DHT22;3159;52.414;9.784;2022-12-29T02:09:55;9.90;99.90
6252;DHT22;3159;52.414;9.784;2022-12-29T02:12:23;10.00;99.90
6252;DHT22;3159;52.414;9.784;2022-12-29T02:14:54;10.00;99.90
6252;DHT22;3159;52.414;9.784;2022-12-29T02:17:29;10.00;99.90
6252;DHT22;3159;52.414;9.784;2022-12-29T02:23:23;10.00;99.90
6252;DHT22;3159;52.414;9.784;2022-12-29T02:31:54;10.00;99.90
6252;DHT22;3159;52.414;9.784;2022-12-29T02:34:31;10.00;99.90
6252;DHT22;3159;52.414;9.784;2022-12-29T02:37:06;10.00;99.90
6252;DHT22;3159;52.414;9.784;2022-12-29T02:39:40;10.00;99.90
6252;DHT22;3159;52.414;9.784;2022-12-29T02:42:13;10.00;99.90
6252;DHT22;3159;52.414;9.784;2022-12-29T02:44:52;10.10;99.90
6252;DHT22;3159;52.414;9.784;2022-12-29T02:47:27;10.00;99.90
6252;DHT22;3159;52.414;9.784;2022-12-29T02:50:01;10.10;99.90
6252;DHT22;3159;52.414;9.784;2022-12-29T02:52:31;10.10;99.90
6252;DHT22;3159;52.414;9.784;2022-12-29T02:55:00;10.10;99.90
6252;DHT22;3159;52.414;9.784;2022-12-29T02:57:32;10.10;99.90
6252;DHT22;3159;52.414;9.784;2022-12-29T03:00:03;10.10;99.90
6252;DHT22;3159;52.414;9.784;2022-12-29T03:02:52;10.10;99.90
6252;DHT22;3159;52.414;9.784;2022-12-29T03:05:39;10.20;99.90
6252;DHT22;3159;52.414;9.784;2022-12-29T03:08:16;10.20;99.90
6252;DHT22;3159;52.414;9.784;2022-12-29T03:11:01;10.20;99.90
6252;DHT22;3159;52.414;9.784;2022-12-29T03:13:35;10.30;99.90
6252;DHT22;3159;52.414;9.784;2022-12-29T03:16:27;10.20;99.90
6252;DHT22;3159;52.414;9.784;2022-12-29T03:19:00;10.20;99.90
6252;DHT22;3159;52.414;9.784;2022-12-29T03:21:32;10.30;99.90
6252;DHT22;3159;52.414;9.784;2022-12-29T03:24:19;10.30;99.90
6252;DHT22;3159;52.414;9.784;2022-12-29T03:26:47;10.30;99.90
6252;DHT22;3159;52.414;9.784;2022-12-29T03:29:17;10.30;99.90
6252;DHT22;3159;52.414;9.784;2022-12-29T03:31:46;10.30;99.90
6252;DHT22;3159;52.414;9.784;2022-12-29T03:34:16;10.30;99.90
6252;DHT22;3159;52.414;9.784;2022-12-29T03:36:49;10.40;99.90
6252;DHT22;3159;52.414;9.784;2022-12-29T03:39:18;10.30;99.90
6252;DHT22;3159;52.414;9.784;2022-12-29T03:41:50;10.30;99.90
6252;DHT22;3159;52.414;9.784;2022-12-29T03:44:17;10.40;99.90
6252;DHT22;3159;52.414;9.784;2022-12-29T03:46:44;10.40;99.90
6252;DHT22;3159;52.414;9.784;2022-12-29T03:49:11;10.50;99.90
6252;DHT22;3159;52.414;9.784;2022-12-29T03:51:39;10.50;99.90
6252;DHT22;3159;52.414;9.784;2022-12-29T03:54:06;10.50;99.90
6252;DHT22;3159;52.414;9.784;2022-12-29T03:56:33;10.50;99.90
6252;DHT22;3159;52.414;9.784;2022-12-29T03:58:59;10.50;99.90
6252;DHT22;3159;52.414;9.784;2022-12-29T04:01:26;10.50;99.90
6252;DHT22;3159;52.414;9.784;2022-12-29T04:03:53;10.50;99.90
6252;DHT22;3159;52.414;9.784;2022-12-29T04:06:19;10.50;99.90
6252;DHT22;3159;52.414;9.784;2022-12-29T04:08:48;10.50;99.90
6252;DHT22;3159;52.414;9.784;2022-12-29T04:11:14;10.60;99.90
6252;DHT22;3159;52.414;9.784;2022-12-29T04:13:41;10.60;99.90
6252;DHT22;3159;52.414;9.784;2022-12-29T04:16:08;10.60;99.90
6252;DHT22;3159;52.414;9.784;2022-12-29T04:18:35;10.60;99.90
6252;DHT22;3159;52.414;9.784;2022-12-29T04:21:01;10.70;99.90
6252;DHT22;3159;52.414;9.784;2022-12-29T04:23:31;10.70;99.90
6252;DHT22;3159;52.414;9.784;2022-12-29T04:26:00;10.70;99.90
6252;DHT22;3159;52.414;9.784;2022-12-29T04:28:27;10.80;99.90
6252;DHT22;3159;52.414;9.784;2022-12-29T04:30:54;10.80;99.90
6252;DHT22;3159;52.414;9.784;2022-12-29T04:33:21;10.90;99.90
6252;DHT22;3159;52.414;9.784;2022-12-29T04:35:48;10.90;99.90
6252;DHT22;3159;52.414;9.784;2022-12-29T04:38:15;11.00;99.90
6252;DHT22;3159;52.414;9.784;2022-12-29T04:40:43;11.00;99.90
6252;DHT22;3159;52.414;9.784;2022-12-29T04:43:11;11.00;99.90
6252;DHT22;3159;52.414;9.784;2022-12-29T04:45:38;11.00;99.90
6252;DHT22;3159;52.414;9.784;2022-12-29T04:48:05;11.10;99.90
6252;DHT22;3159;52.414;9.784;2022-12-29T04:50:32;11.10;99.90
6252;DHT22;3159;52.414;9.784;2022-12-29T04:52:59;11.10;99.90
6252;DHT22;3159;52.414;9.784;2022-12-29T04:55:26;11.10;99.90
6252;DHT22;3159;52.414;9.784;2022-12-29T04:57:53;11.10;99.90
6252;DHT22;3159;52.414;9.784;2022-12-29T05:00:21;11.20;99.90
6252;DHT22;3159;52.414;9.784;2022-12-29T05:02:48;11.20;99.90
6252;DHT22;3159;52.414;9.784;2022-12-29T05:05:15;11.20;99.90
6252;DHT22;3159;52.414;9.784;2022-12-29T05:07:42;11.20;99.90
6252;DHT22;3159;52.414;9.784;2022-12-29T05:10:09;11.20;99.90
6252;DHT22;3159;52.414;9.784;2022-12-29T05:12:37;11.20;99.90
6252;DHT22;3159;52.414;9.784;2022-12-29T05:15:05;11.20;99.90
6252;DHT22;3159;52.414;9.784;2022-12-29T05:17:34;11.20;99.90
6252;DHT22;3159;52.414;9.784;2022-12-29T05:20:01;11.20;99.90
6252;DHT22;3159;52.414;9.784;2022-12-29T05:22:28;11.20;99.90
6252;DHT22;3159;52.414;9.784;2022-12-29T05:24:54;11.20;99.90
6252;DHT22;3159;52.414;9.784;2022-12-29T05:27:21;11.30;99.90
6252;DHT22;3159;52.414;9.784;2022-12-29T05:29:48;11.20;99.90
6252;DHT22;3159;52.414;9.784;2022-12-29T05:32:15;11.20;99.90
6252;DHT22;3159;52.414;9.784;2022-12-29T05:34:43;11.30;99.90
6252;DHT22;3159;52.414;9.784;2022-12-29T05:37:09;11.30;99.90
6252;DHT22;3159;52.414;9.784;2022-12-29T05:39:36;11.30;99.90
6252;DHT22;3159;52.414;9.784;2022-12-29T05:42:03;11.30;99.90
6252;DHT22;3159;52.414;9.784;2022-12-29T05:44:30;11.30;99.90
6252;DHT22;3159;52.414;9.784;2022-12-29T05:46:57;11.20;99.90
6252;DHT22;3159;52.414;9.784;2022-12-29T05:49:23;11.30;99.90
6252;DHT22;3159;52.414;9.784;2022-12-29T05:51:52;11.30;99.90
6252;DHT22;3159;52.414;9.784;2022-12-29T05:54:18;11.30;99.90
6252;DHT22;3159;52.414;9.784;2022-12-29T05:56:45;11.30;99.90
6252;DHT22;3159;52.414;9.784;2022-12-29T05:59:12;11.30;99.90
6252;DHT22;3159;52.414;9.784;2022-12-29T06:01:39;11.20;99.90
6252;DHT22;3159;52.414;9.784;2022-12-29T06:04:05;11.30;99.90
6252;DHT22;3159;52.414;9.784;2022-12-29T06:06:32;11.30;99.90
6252;DHT22;3159;52.414;9.784;2022-12-29T06:09:00;11.30;99.90
6252;DHT22;3159;52.414;9.784;2022-12-29T06:11:27;11.20;99.90
6252;DHT22;3159;52.414;9.784;2022-12-29T06:13:54;11.30;99.90
6252;DHT22;3159;52.414;9.784;2022-12-29T06:16:21;11.10;99.90
6252;DHT22;3159;52.414;9.784;2022-12-29T06:18:47;11.10;99.90
6252;DHT22;3159;52.414;9.784;2022-12-29T06:21:14;11.10;99.90
6252;DHT22;3159;52.414;9.784;2022-12-29T06:23:41;11.10;99.90
6252;DHT22;3159;52.414;9.784;2022-12-29T06:26:09;11.10;99.90
6252;DHT22;3159;52.414;9.784;2022-12-29T06:28:36;11.10;99.90
6252;DHT22;3159;52.414;9.784;2022-12-29T06:31:03;11.00;99.90
6252;DHT22;3159;52.414;9.784;2022-12-29T06:33:30;10.90;99.90
6252;DHT22;3159;52.414;9.784;2022-12-29T06:35:56;10.90;99.90
6252;DHT22;3159;52.414;9.784;2022-12-29T06:38:23;10.90;99.90
6252;DHT22;3159;52.414;9.784;2022-12-29T06:40:50;10.90;99.90
6252;DHT22;3159;52.414;9.784;2022-12-29T06:43:18;10.90;99.90
6252;DHT22;3159;52.414;9.784;2022-12-29T06:45:45;10.80;99.90
6252;DHT22;3159;52.414;9.784;2022-12-29T06:48:12;10.80;99.90
6252;DHT22;3159;52.414;9.784;2022-12-29T06:50:39;10.90;99.90
6252;DHT22;3159;52.414;9.784;2022-12-29T06:53:06;11.00;99.90
6252;DHT22;3159;52.414;9.784;2022-12-29T06:55:32;10.80;99.90
6252;DHT22;3159;52.414;9.784;2022-12-29T06:57:59;10.90;99.90
6252;DHT22;3159;52.414;9.784;2022-12-29T07:00:28;10.90;99.90
6252;DHT22;3159;52.414;9.784;2022-12-29T07:02:55;10.80;99.90
6252;DHT22;3159;52.414;9.784;2022-12-29T07:05:23;10.90;99.90
6252;DHT22;3159;52.414;9.784;2022-12-29T07:07:50;10.90;99.90
6252;DHT22;3159;52.414;9.784;2022-12-29T07:10:17;10.80;99.90
6252;DHT22;3159;52.414;9.784;2022-12-29T07:12:44;10.90;99.90
6252;DHT22;3159;52.414;9.784;2022-12-29T07:15:11;11.00;99.90
6252;DHT22;3159;52.414;9.784;2022-12-29T07:17:39;11.00;99.90
6252;DHT22;3159;52.414;9.784;2022-12-29T07:20:07;11.00;99.90
6252;DHT22;3159;52.414;9.784;2022-12-29T07:22:35;11.10;99.90
6252;DHT22;3159;52.414;9.784;2022-12-29T07:25:01;10.90;99.90
6252;DHT22;3159;52.414;9.784;2022-12-29T07:27:28;10.50;99.90
6252;DHT22;3159;52.414;9.784;2022-12-29T07:29:55;10.20;99.90
6252;DHT22;3159;52.414;9.784;2022-12-29T07:32:22;10.10;99.90
6252;DHT22;3159;52.414;9.784;2022-12-29T07:34:50;10.00;99.90
6252;DHT22;3159;52.414;9.784;2022-12-29T07:37:17;10.00;99.90
6252;DHT22;3159;52.414;9.784;2022-12-29T07:39:44;10.00;99.90
6252;DHT22;3159;52.414;9.784;2022-12-29T07:42:11;10.00;99.90
6252;DHT22;3159;52.414;9.784;2022-12-29T07:44:38;9.90;99.90
6252;DHT22;3159;52.414;9.784;2022-12-29T07:47:05;9.90;99.90
6252;DHT22;3159;52.414;9.784;2022-12-29T07:49:31;10.00;99.90
6252;DHT22;3159;52.414;9.784;2022-12-29T07:52:00;9.90;99.90
6252;DHT22;3159;52.414;9.784;2022-12-29T07:54:26;10.00;99.90
6252;DHT22;3159;52.414;9.784;2022-12-29T07:56:53;10.00;99.90
6252;DHT22;3159;52.414;9.784;2022-12-29T07:59:20;10.00;99.90
6252;DHT22;3159;52.414;9.784;2022-12-29T08:01:47;10.00;99.90
6252;DHT22;3159;52.414;9.784;2022-12-29T08:04:14;10.10;99.90
6252;DHT22;3159;52.414;9.784;2022-12-29T08:06:41;10.00;99.90
6252;DHT22;3159;52.414;9.784;2022-12-29T08:09:09;10.00;99.90
6252;DHT22;3159;52.414;9.784;2022-12-29T08:11:36;10.10;99.90
6252;DHT22;3159;52.414;9.784;2022-12-29T08:14:03;10.10;99.90
6252;DHT22;3159;52.414;9.784;2022-12-29T08:16:30;10.10;99.90
6252;DHT22;3159;52.414;9.784;2022-12-29T08:18:57;10.00;99.90
6252;DHT22;3159;52.414;9.784;2022-12-29T08:21:25;10.00;99.90
6252;DHT22;3159;52.414;9.784;2022-12-29T08:23:53;10.00;99.90
6252;DHT22;3159;52.414;9.784;2022-12-29T08:26:21;10.00;99.90
6252;DHT22;3159;52.414;9.784;2022-12-29T08:28:48;10.00;99.90
6252;DHT22;3159;52.414;9.784;2022-12-29T08:31:15;10.00;99.90
6252;DHT22;3159;52.414;9.784;2022-12-29T08:33:42;10.00;99.90
6252;DHT22;3159;52.414;9.784;2022-12-29T08:36:09;10.00;99.90
6252;DHT22;3159;52.414;9.784;2022-12-29T08:38:36;10.00;99.90
6252;DHT22;3159;52.414;9.784;2022-12-29T08:41:03;10.00;99.90
6252;DHT22;3159;52.414;9.784;2022-12-29T08:43:31;10.00;99.90
6252;DHT22;3159;52.414;9.784;2022-12-29T08:45:58;10.00;99.90
6252;DHT22;3159;52.414;9.784;2022-12-29T08:48:25;10.10;99.90
6252;DHT22;3159;52.414;9.784;2022-12-29T08:50:52;10.10;99.90
6252;DHT22;3159;52.414;9.784;2022-12-29T08:53:19;10.10;99.90
6252;DHT22;3159;52.414;9.784;2022-12-29T08:55:47;10.20;99.90
6252;DHT22;3159;52.414;9.784;2022-12-29T08:58:20;10.20;99.90
6252;DHT22;3159;52.414;9.784;2022-12-29T09:00:48;10.20;99.90
6252;DHT22;3159;52.414;9.784;2022-12-29T09:03:15;10.20;99.90
6252;DHT22;3159;52.414;9.784;2022-12-29T09:05:42;10.20;99.90
6252;DHT22;3159;52.414;9.784;2022-12-29T09:08:09;10.20;99.90
6252;DHT22;3159;52.414;9.784;2022-12-29T09:10:36;10.20;99.90
6252;DHT22;3159;52.414;9.784;2022-12-29T09:13:02;10.10;99.90
6252;DHT22;3159;52.414;9.784;2022-12-29T09:15:29;10.10;99.90
6252;DHT22;3159;52.414;9.784;2022-12-29T09:17:57;10.20;99.90
6252;DHT22;3159;52.414;9.784;2022-12-29T09:20:24;10.10;99.90
6252;DHT22;3159;52.414;9.784;2022-12-29T09:22:51;10.20;99.90
6252;DHT22;3159;52.414;9.784;2022-12-29T09:25:18;10.20;99.90
6252;DHT22;3159;52.414;9.784;2022-12-29T09:27:45;10.30;99.90
6252;DHT22;3159;52.414;9.784;2022-12-29T09:30:13;10.40;99.90
6252;DHT22;3159;52.414;9.784;2022-12-29T09:32:40;10.40;99.90
6252;DHT22;3159;52.414;9.784;2022-12-29T09:35:09;10.30;99.90
6252;DHT22;3159;52.414;9.784;2022-12-29T09:37:36;10.30;99.90
6252;DHT22;3159;52.414;9.784;2022-12-29T09:40:04;10.30;99.90
6252;DHT22;3159;52.414;9.784;2022-12-29T09:42:40;10.30;99.90
6252;DHT22;3159;52.414;9.784;2022-12-29T09:45:13;10.30;99.90
6252;DHT22;3159;52.414;9.784;2022-12-29T09:47:41;10.40;99.90
6252;DHT22;3159;52.414;9.784;2022-12-29T09:50:22;10.40;99.90
6252;DHT22;3159;52.414;9.784;2022-12-29T09:52:55;10.40;99.90
6252;DHT22;3159;52.414;9.784;2022-12-29T09:55:30;10.40;99.90
6252;DHT22;3159;52.414;9.784;2022-12-29T09:58:02;10.40;99.90
6252;DHT22;3159;52.414;9.784;2022-12-29T10:00:36;10.40;99.90
6252;DHT22;3159;52.414;9.784;2022-12-29T10:03:10;10.50;99.90
6252;DHT22;3159;52.414;9.784;2022-12-29T10:05:46;10.40;99.90
6252;DHT22;3159;52.414;9.784;2022-12-29T10:08:30;10.40;99.90
6252;DHT22;3159;52.414;9.784;2022-12-29T10:11:07;10.40;99.90
6252;DHT22;3159;52.414;9.784;2022-12-29T10:13:43;10.50;99.90
6252;DHT22;3159;52.414;9.784;2022-12-29T10:16:20;10.50;99.90
6252;DHT22;3159;52.414;9.784;2022-12-29T10:19:18;10.50;99.90
6252;DHT22;3159;52.414;9.784;2022-12-29T10:21:59;11.10;99.90
6252;DHT22;3159;52.414;9.784;2022-12-29T10:24:31;11.10;99.90
6252;DHT22;3159;52.414;9.784;2022-12-29T10:27:01;11.10;99.90
6252;DHT22;3159;52.414;9.784;2022-12-29T10:29:33;11.40;99.90
6252;DHT22;3159;52.414;9.784;2022-12-29T10:32:05;11.50;99.90
6252;DHT22;3159;52.414;9.784;2022-12-29T10:34:37;11.50;99.90
6252;DHT22;3159;52.414;9.784;2022-12-29T10:37:14;11.50;99.90
6252;DHT22;3159;52.414;9.784;2022-12-29T10:39:50;11.50;99.90
6252;DHT22;3159;52.414;9.784;2022-12-29T10:42:26;11.60;99.90
6252;DHT22;3159;52.414;9.784;2022-12-29T10:44:54;11.50;99.90
6252;DHT22;3159;52.414;9.784;2022-12-29T10:47:25;11.60;99.90
6252;DHT22;3159;52.414;9.784;2022-12-29T10:49:53;11.60;99.90
6252;DHT22;3159;52.414;9.784;2022-12-29T10:52:22;11.70;99.90
6252;DHT22;3159;52.414;9.784;2022-12-29T10:54:53;11.70;99.90
6252;DHT22;3159;52.414;9.784;2022-12-29T10:57:26;11.60;99.90
6252;DHT22;3159;52.414;9.784;2022-12-29T10:59:53;11.40;99.90
6252;DHT22;3159;52.414;9.784;2022-12-29T11:02:35;11.10;99.90
6252;DHT22;3159;52.414;9.784;2022-12-29T11:05:09;11.00;99.90
6252;DHT22;3159;52.414;9.784;2022-12-29T11:07:40;10.90;99.90
6252;DHT22;3159;52.414;9.784;2022-12-29T11:10:19;10.90;99.90
6252;DHT22;3159;52.414;9.784;2022-12-29T11:12:57;10.80;99.90
6252;DHT22;3159;52.414;9.784;2022-12-29T11:15:25;10.90;99.90
6252;DHT22;3159;52.414;9.784;2022-12-29T11:17:53;10.90;99.90
6252;DHT22;3159;52.414;9.784;2022-12-29T11:20:29;10.90;99.90
6252;DHT22;3159;52.414;9.784;2022-12-29T11:22:58;11.00;99.90
6252;DHT22;3159;52.414;9.784;2022-12-29T11:25:25;11.00;99.90
6252;DHT22;3159;52.414;9.784;2022-12-29T11:27:56;11.00;99.90
6252;DHT22;3159;52.414;9.784;2022-12-29T11:30:25;11.00;99.90
6252;DHT22;3159;52.414;9.784;2022-12-29T11:33:03;11.00;99.90
6252;DHT22;3159;52.414;9.784;2022-12-29T11:35:38;11.00;99.90
6252;DHT22;3159;52.414;9.784;2022-12-29T11:38:18;11.00;99.90
6252;DHT22;3159;52.414;9.784;2022-12-29T11:40:46;11.00;99.90
6252;DHT22;3159;52.414;9.784;2022-12-29T11:43:30;11.00;99.90
6252;DHT22;3159;52.414;9.784;2022-12-29T11:45:59;11.00;99.90
6252;DHT22;3159;52.414;9.784;2022-12-29T11:48:32;11.10;99.90
6252;DHT22;3159;52.414;9.784;2022-12-29T11:51:00;11.10;99.90
6252;DHT22;3159;52.414;9.784;2022-12-29T11:53:51;11.10;99.90
6252;DHT22;3159;52.414;9.784;2022-12-29T11:56:30;11.20;99.90
6252;DHT22;3159;52.414;9.784;2022-12-29T11:59:34;11.30;99.90
6252;DHT22;3159;52.414;9.784;2022-12-29T12:02:26;11.30;99.90
6252;DHT22;3159;52.414;9.784;2022-12-29T12:04:59;11.30;99.90
6252;DHT22;3159;52.414;9.784;2022-12-29T12:07:37;11.30;99.90
6252;DHT22;3159;52.414;9.784;2022-12-29T12:10:17;11.30;99.90
6252;DHT22;3159;52.414;9.784;2022-12-29T12:12:49;11.40;99.90
6252;DHT22;3159;52.414;9.784;2022-12-29T12:15:22;11.50;99.90
6252;DHT22;3159;52.414;9.784;2022-12-29T12:17:54;11.50;99.90
6252;DHT22;3159;52.414;9.784;2022-12-29T12:20:27;11.50;99.90
6252;DHT22;3159;52.414;9.784;2022-12-29T12:23:07;11.50;99.90
6252;DHT22;3159;52.414;9.784;2022-12-29T12:25:43;11.40;99.90
6252;DHT22;3159;52.414;9.784;2022-12-29T12:28:19;11.40;99.90
6252;DHT22;3159;52.414;9.784;2022-12-29T12:30:50;11.40;99.90
6252;DHT22;3159;52.414;9.784;2022-12-29T12:33:24;11.30;99.90
6252;DHT22;3159;52.414;9.784;2022-12-29T12:36:14;11.30;99.90
6252;DHT22;3159;52.414;9.784;2022-12-29T12:38:50;11.30;99.90
6252;DHT22;3159;52.414;9.784;2022-12-29T12:41:29;11.30;99.90
6252;DHT22;3159;52.414;9.784;2022-12-29T12:44:01;11.30;99.90
6252;DHT22;3159;52.414;9.784;2022-12-29T12:50:04;11.20;99.90
6252;DHT22;3159;52.414;9.784;2022-12-29T12:52:44;11.20;99.90
6252;DHT22;3159;52.414;9.784;2022-12-29T12:58:19;11.20;99.90
6252;DHT22;3159;52.414;9.784;2022-12-29T13:01:03;11.20;99.90
6252;DHT22;3159;52.414;9.784;2022-12-29T13:03:41;11.20;99.90
6252;DHT22;3159;52.414;9.784;2022-12-29T13:06:18;11.20;99.90
6252;DHT22;3159;52.414;9.784;2022-12-29T13:11:48;11.20;99.90
6252;DHT22;3159;52.414;9.784;2022-12-29T13:14:28;11.20;99.90
6252;DHT22;3159;52.414;9.784;2022-12-29T13:17:01;11.20;99.90
6252;DHT22;3159;52.414;9.784;2022-12-29T13:19:36;11.20;99.90
6252;DHT22;3159;52.414;9.784;2022-12-29T13:22:09;11.20;99.90
6252;DHT22;3159;52.414;9.784;2022-12-29T13:24:51;11.30;99.90
6252;DHT22;3159;52.414;9.784;2022-12-29T13:27:25;11.20;99.90
6252;DHT22;3159;52.414;9.784;2022-12-29T13:30:01;11.20;99.90
6252;DHT22;3159;52.414;9.784;2022-12-29T13:32:42;11.20;99.90
6252;DHT22;3159;52.414;9.784;2022-12-29T13:35:19;11.20;99.90
6252;DHT22;3159;52.414;9.784;2022-12-29T13:37:53;11.20;99.90
6252;DHT22;3159;52.414;9.784;2022-12-29T13:40:23;11.20;99.90
6252;DHT22;3159;52.414;9.784;2022-12-29T13:42:52;11.20;99.90
6252;DHT22;3159;52.414;9.784;2022-12-29T13:45:24;11.30;99.90
6252;DHT22;3159;52.414;9.784;2022-12-29T13:47:54;11.30;99.90
6252;DHT22;3159;52.414;9.784;2022-12-29T13:50:26;11.30;99.90
6252;DHT22;3159;52.414;9.784;2022-12-29T13:53:01;11.20;99.90
6252;DHT22;3159;52.414;9.784;2022-12-29T13:55:34;11.20;99.90
6252;DHT22;3159;52.414;9.784;2022-12-29T13:58:07;11.20;99.90
6252;DHT22;3159;52.414;9.784;2022-12-29T14:00:44;11.20;99.90
6252;DHT22;3159;52.414;9.784;2022-12-29T14:03:39;11.30;99.90
6252;DHT22;3159;52.414;9.784;2022-12-29T14:06:25;11.20;99.90
6252;DHT22;3159;52.414;9.784;2022-12-29T14:08:54;11.20;99.90
6252;DHT22;3159;52.414;9.784;2022-12-29T14:11:23;11.20;99.90
6252;DHT22;3159;52.414;9.784;2022-12-29T14:13:55;11.20;99.90
6252;DHT22;3159;52.414;9.784;2022-12-29T14:16:31;11.20;99.90
6252;DHT22;3159;52.414;9.784;2022-12-29T14:19:11;11.20;99.90
6252;DHT22;3159;52.414;9.784;2022-12-29T14:21:39;11.20;99.90
6252;DHT22;3159;52.414;9.784;2022-12-29T14:24:37;11.20;99.90
6252;DHT22;3159;52.414;9.784;2022-12-29T14:27:43;11.20;99.90
6252;DHT22;3159;52.414;9.784;2022-12-29T14:33:14;11.20;99.90
6252;DHT22;3159;52.414;9.784;2022-12-29T14:35:42;11.10;99.90
6252;DHT22;3159;52.414;9.784;2022-12-29T14:38:27;11.10;99.90
6252;DHT22;3159;52.414;9.784;2022-12-29T14:41:16;11.20;99.90
6252;DHT22;3159;52.414;9.784;2022-12-29T14:44:16;11.20;99.90
6252;DHT22;3159;52.414;9.784;2022-12-29T14:47:26;11.20;99.90
6252;DHT22;3159;52.414;9.784;2022-12-29T15:00:06;11.10;99.90
6252;DHT22;3159;52.414;9.784;2022-12-29T15:03:04;11.10;99.90
6252;DHT22;3159;52.414;9.784;2022-12-29T15:06:18;11.10;99.90
6252;DHT22;3159;52.414;9.784;2022-12-29T15:09:39;11.10;99.90
6252;DHT22;3159;52.414;9.784;2022-12-29T15:29:36;10.90;99.90
6252;DHT22;3159;52.414;9.784;2022-12-29T15:32:51;10.90;99.90
6252;DHT22;3159;52.414;9.784;2022-12-29T15:38:54;10.80;99.90
6252;DHT22;3159;52.414;9.784;2022-12-29T15:41:29;10.90;99.90
6252;DHT22;3159;52.414;9.784;2022-12-29T15:44:06;10.80;99.90
6252;DHT22;3159;52.414;9.784;2022-12-29T15:46:35;10.80;99.90
6252;DHT22;3159;52.414;9.784;2022-12-29T15:49:05;10.80;99.90
6252;DHT22;3159;52.414;9.784;2022-12-29T15:51:36;10.80;99.90
6252;DHT22;3159;52.414;9.784;2022-12-29T15:54:04;10.70;99.90
6252;DHT22;3159;52.414;9.784;2022-12-29T15:56:33;10.70;99.90
6252;DHT22;3159;52.414;9.784;2022-12-29T15:59:01;10.70;99.90
6252;DHT22;3159;52.414;9.784;2022-12-29T16:01:31;10.80;99.90
6252;DHT22;3159;52.414;9.784;2022-12-29T16:03:59;10.70;99.90
6252;DHT22;3159;52.414;9.784;2022-12-29T16:06:29;10.70;99.90
6252;DHT22;3159;52.414;9.784;2022-12-29T16:08:58;10.60;99.90
6252;DHT22;3159;52.414;9.784;2022-12-29T16:11:26;10.60;99.90
6252;DHT22;3159;52.414;9.784;2022-12-29T16:13:55;10.60;99.90
6252;DHT22;3159;52.414;9.784;2022-12-29T16:16:26;10.60;99.90
6252;DHT22;3159;52.414;9.784;2022-12-29T16:18:54;10.60;99.90
6252;DHT22;3159;52.414;9.784;2022-12-29T16:21:24;10.60;99.90
6252;DHT22;3159;52.414;9.784;2022-12-29T16:23:55;10.50;99.90
6252;DHT22;3159;52.414;9.784;2022-12-29T16:26:24;10.50;99.90
6252;DHT22;3159;52.414;9.784;2022-12-29T16:28:56;10.50;99.90
6252;DHT22;3159;52.414;9.784;2022-12-29T16:31:25;10.50;99.90
6252;DHT22;3159;52.414;9.784;2022-12-29T16:33:55;10.50;99.90
6252;DHT22;3159;52.414;9.784;2022-12-29T16:36:29;10.60;99.90
6252;DHT22;3159;52.414;9.784;2022-12-29T16:39:18;10.50;99.90
6252;DHT22;3159;52.414;9.784;2022-12-29T16:41:47;10.60;99.90
6252;DHT22;3159;52.414;9.784;2022-12-29T16:44:18;10.50;99.90
6252;DHT22;3159;52.414;9.784;2022-12-29T16:46:58;10.50;99.90
6252;DHT22;3159;52.414;9.784;2022-12-29T16:49:26;10.40;99.90
6252;DHT22;3159;52.414;9.784;2022-12-29T16:51:53;10.40;99.90
6252;DHT22;3159;52.414;9.784;2022-12-29T16:54:23;10.30;99.90
6252;DHT22;3159;52.414;9.784;2022-12-29T16:56:52;10.30;99.90
6252;DHT22;3159;52.414;9.784;2022-12-29T16:59:32;10.30;99.90
6252;DHT22;3159;52.414;9.784;2022-12-29T17:02:06;10.40;99.90
6252;DHT22;3159;52.414;9.784;2022-12-29T17:04:33;10.40;99.90
6252;DHT22;3159;52.414;9.784;2022-12-29T17:07:00;10.40;99.90
6252;DHT22;3159;52.414;9.784;2022-12-29T17:09:27;10.30;99.90
6252;DHT22;3159;52.414;9.784;2022-12-29T17:11:57;10.40;99.90
6252;DHT22;3159;52.414;9.784;2022-12-29T17:14:41;10.30;99.90
6252;DHT22;3159;52.414;9.784;2022-12-29T17:17:16;10.30;99.90
6252;DHT22;3159;52.414;9.784;2022-12-29T17:19:46;10.30;99.90
6252;DHT22;3159;52.414;9.784;2022-12-29T17:22:16;10.30;99.90
6252;DHT22;3159;52.414;9.784;2022-12-29T17:24:43;10.20;99.90
6252;DHT22;3159;52.414;9.784;2022-12-29T17:27:19;10.20;99.90